sensor_id;sensor_type;location;lat;lon;timestamp;pressure;altitude;pressure_sealevel;temperature;humidity
72308;BME280;60257;42.638;23.376;2022-12-07T00:01:13;94593.56;;;4.95;79.31
72308;BME280;60257;42.638;23.376;2022-12-07T00:03:41;94590.38;;;4.93;79.47
72308;BME280;60257;42.638;23.376;2022-12-07T00:06:08;94593.69;;;4.90;79.63
72308;BME280;60257;42.638;23.376;2022-12-07T00:08:34;94586.81;;;4.84;79.78
72308;BME280;60257;42.638;23.376;2022-12-07T00:11:07;94600.19;;;4.81;80.10
72308;BME280;60257;42.638;23.376;2022-12-07T00:13:34;94589.31;;;4.81;79.92
72308;BME280;60257;42.638;23.376;2022-12-07T00:16:01;94587.75;;;4.80;79.90
72308;BME280;60257;42.638;23.376;2022-12-07T00:18:27;94579.25;;;4.81;80.08
72308;BME280;60257;42.638;23.376;2022-12-07T00:20:52;94586.81;;;4.84;79.99
72308;BME280;60257;42.638;23.376;2022-12-07T00:23:17;94588.09;;;4.87;79.80
72308;BME280;60257;42.638;23.376;2022-12-07T00:25:43;94580.75;;;4.87;79.92
72308;BME280;60257;42.638;23.376;2022-12-07T00:28:08;94581.53;;;4.88;79.83
72308;BME280;60257;42.638;23.376;2022-12-07T00:30:35;94575.94;;;4.84;79.87
72308;BME280;60257;42.638;23.376;2022-12-07T00:33:01;94576.75;;;4.85;79.73
72308;BME280;60257;42.638;23.376;2022-12-07T00:35:26;94566.47;;;4.82;80.01
72308;BME280;60257;42.638;23.376;2022-12-07T00:37:52;94580.56;;;4.84;79.86
72308;BME280;60257;42.638;23.376;2022-12-07T00:40:17;94581.97;;;4.81;80.08
72308;BME280;60257;42.638;23.376;2022-12-07T00:42:43;94573.47;;;4.74;80.64
72308;BME280;60257;42.638;23.376;2022-12-07T00:45:09;94592.03;;;4.72;80.61
72308;BME280;60257;42.638;23.376;2022-12-07T00:47:34;94572.00;;;4.68;80.46
72308;BME280;60257;42.638;23.376;2022-12-07T00:50:00;94572.69;;;4.74;80.17
72308;BME280;60257;42.638;23.376;2022-12-07T00:52:25;94558.16;;;4.78;79.97
72308;BME280;60257;42.638;23.376;2022-12-07T00:54:51;94566.97;;;4.84;79.98
72308;BME280;60257;42.638;23.376;2022-12-07T00:57:16;94561.53;;;4.84;80.02
72308;BME280;60257;42.638;23.376;2022-12-07T00:59:42;94564.75;;;4.86;79.96
72308;BME280;60257;42.638;23.376;2022-12-07T01:02:07;94562.16;;;4.81;79.96
72308;BME280;60257;42.638;23.376;2022-12-07T01:04:34;94559.25;;;4.69;80.39
72308;BME280;60257;42.638;23.376;2022-12-07T01:06:59;94568.50;;;4.68;80.55
72308;BME280;60257;42.638;23.376;2022-12-07T01:09:25;94571.88;;;4.73;80.69
72308;BME280;60257;42.638;23.376;2022-12-07T01:11:50;94566.78;;;4.80;80.41
72308;BME280;60257;42.638;23.376;2022-12-07T01:14:16;94566.03;;;4.88;80.25
72308;BME280;60257;42.638;23.376;2022-12-07T01:16:41;94554.03;;;4.89;80.32
72308;BME280;60257;42.638;23.376;2022-12-07T01:19:07;94554.50;;;4.83;80.50
72308;BME280;60257;42.638;23.376;2022-12-07T01:21:34;94563.81;;;4.90;80.46
72308;BME280;60257;42.638;23.376;2022-12-07T01:24:01;94546.19;;;4.88;80.64
72308;BME280;60257;42.638;23.376;2022-12-07T01:26:27;94547.34;;;4.87;80.55
72308;BME280;60257;42.638;23.376;2022-12-07T01:28:53;94538.72;;;4.93;80.64
72308;BME280;60257;42.638;23.376;2022-12-07T01:31:22;94539.53;;;4.94;80.72
72308;BME280;60257;42.638;23.376;2022-12-07T01:33:49;94549.09;;;4.91;80.54
72308;BME280;60257;42.638;23.376;2022-12-07T01:36:31;94550.06;;;4.87;80.75
72308;BME280;60257;42.638;23.376;2022-12-07T01:38:58;94552.91;;;4.82;80.73
72308;BME280;60257;42.638;23.376;2022-12-07T01:41:27;94547.47;;;4.82;80.78
72308;BME280;60257;42.638;23.376;2022-12-07T01:44:16;94551.44;;;4.76;80.84
72308;BME280;60257;42.638;23.376;2022-12-07T01:46:47;94550.91;;;4.65;81.57
72308;BME280;60257;42.638;23.376;2022-12-07T01:49:45;94563.66;;;4.56;81.95
72308;BME280;60257;42.638;23.376;2022-12-07T01:52:16;94551.25;;;4.63;81.68
72308;BME280;60257;42.638;23.376;2022-12-07T01:54:44;94547.88;;;4.67;81.68
72308;BME280;60257;42.638;23.376;2022-12-07T01:57:11;94559.75;;;4.71;81.24
72308;BME280;60257;42.638;23.376;2022-12-07T01:59:39;94540.53;;;4.36;82.39
72308;BME280;60257;42.638;23.376;2022-12-07T02:02:09;94538.81;;;4.40;82.43
72308;BME280;60257;42.638;23.376;2022-12-07T02:04:37;94536.91;;;4.49;82.27
72308;BME280;60257;42.638;23.376;2022-12-07T02:07:04;94519.06;;;4.48;81.85
72308;BME280;60257;42.638;23.376;2022-12-07T02:09:30;94535.06;;;4.58;81.94
72308;BME280;60257;42.638;23.376;2022-12-07T02:11:56;94527.59;;;4.64;81.83
72308;BME280;60257;42.638;23.376;2022-12-07T02:14:21;94513.22;;;4.63;81.38
72308;BME280;60257;42.638;23.376;2022-12-07T02:28:20;94538.81;;;4.71;81.74
72308;BME280;60257;42.638;23.376;2022-12-07T02:30:53;94529.78;;;4.53;82.09
72308;BME280;60257;42.638;23.376;2022-12-07T02:33:36;94529.81;;;4.62;81.74
72308;BME280;60257;42.638;23.376;2022-12-07T02:36:07;94518.19;;;4.70;81.69
72308;BME280;60257;42.638;23.376;2022-12-07T02:38:39;94516.88;;;4.68;81.59
72308;BME280;60257;42.638;23.376;2022-12-07T02:41:22;94510.34;;;4.69;81.64
72308;BME280;60257;42.638;23.376;2022-12-07T02:43:52;94498.53;;;4.64;81.50
72308;BME280;60257;42.638;23.376;2022-12-07T02:46:26;94507.78;;;4.63;81.87
72308;BME280;60257;42.638;23.376;2022-12-07T02:48:54;94516.03;;;4.58;81.87
72308;BME280;60257;42.638;23.376;2022-12-07T02:51:21;94531.13;;;4.64;81.90
72308;BME280;60257;42.638;23.376;2022-12-07T02:53:47;94532.03;;;4.60;81.99
72308;BME280;60257;42.638;23.376;2022-12-07T03:01:40;94521.63;;;4.53;81.86
72308;BME280;60257;42.638;23.376;2022-12-07T03:06:43;94494.44;;;4.45;81.88
72308;BME280;60257;42.638;23.376;2022-12-07T03:09:22;94502.06;;;4.43;82.19
72308;BME280;60257;42.638;23.376;2022-12-07T03:12:10;94490.25;;;4.39;82.14
72308;BME280;60257;42.638;23.376;2022-12-07T03:15:00;94496.94;;;4.33;82.20
72308;BME280;60257;42.638;23.376;2022-12-07T03:17:28;94493.41;;;4.32;82.50
72308;BME280;60257;42.638;23.376;2022-12-07T03:20:00;94486.69;;;4.30;82.28
72308;BME280;60257;42.638;23.376;2022-12-07T03:22:31;94486.84;;;4.24;82.56
72308;BME280;60257;42.638;23.376;2022-12-07T03:25:04;94485.88;;;4.29;82.56
72308;BME280;60257;42.638;23.376;2022-12-07T03:27:34;94464.75;;;3.86;83.40
72308;BME280;60257;42.638;23.376;2022-12-07T03:30:06;94495.41;;;4.18;82.94
72308;BME280;60257;42.638;23.376;2022-12-07T03:32:57;94481.97;;;4.13;82.91
72308;BME280;60257;42.638;23.376;2022-12-07T03:35:28;94484.38;;;4.14;82.67
72308;BME280;60257;42.638;23.376;2022-12-07T03:38:08;94501.22;;;4.25;82.50
72308;BME280;60257;42.638;23.376;2022-12-07T03:43:15;94501.19;;;3.94;83.84
72308;BME280;60257;42.638;23.376;2022-12-07T03:45:44;94502.22;;;4.07;83.51
72308;BME280;60257;42.638;23.376;2022-12-07T03:48:23;94501.41;;;4.06;83.47
72308;BME280;60257;42.638;23.376;2022-12-07T03:53:36;94498.13;;;4.18;83.06
72308;BME280;60257;42.638;23.376;2022-12-07T03:56:05;94498.78;;;4.23;83.26
72308;BME280;60257;42.638;23.376;2022-12-07T03:58:33;94491.00;;;4.31;82.84
72308;BME280;60257;42.638;23.376;2022-12-07T04:00:59;94490.69;;;4.32;82.55
72308;BME280;60257;42.638;23.376;2022-12-07T04:03:24;94491.94;;;4.26;83.01
72308;BME280;60257;42.638;23.376;2022-12-07T04:05:50;94487.44;;;4.21;83.05
72308;BME280;60257;42.638;23.376;2022-12-07T04:08:16;94483.75;;;4.17;83.04
72308;BME280;60257;42.638;23.376;2022-12-07T04:10:41;94492.72;;;4.18;83.14
72308;BME280;60257;42.638;23.376;2022-12-07T04:13:07;94492.25;;;4.24;82.91
72308;BME280;60257;42.638;23.376;2022-12-07T04:15:32;94484.59;;;4.26;82.35
72308;BME280;60257;42.638;23.376;2022-12-07T04:17:58;94485.69;;;4.17;82.42
72308;BME280;60257;42.638;23.376;2022-12-07T04:20:23;94478.59;;;4.07;82.95
72308;BME280;60257;42.638;23.376;2022-12-07T04:22:49;94480.84;;;4.14;82.75
72308;BME280;60257;42.638;23.376;2022-12-07T04:25:14;94471.38;;;4.03;83.03
72308;BME280;60257;42.638;23.376;2022-12-07T04:27:40;94487.53;;;4.08;82.93
72308;BME280;60257;42.638;23.376;2022-12-07T04:30:06;94484.81;;;4.08;82.68
72308;BME280;60257;42.638;23.376;2022-12-07T04:32:31;94457.88;;;3.89;83.41
72308;BME280;60257;42.638;23.376;2022-12-07T04:34:57;94500.63;;;3.83;83.72
72308;BME280;60257;42.638;23.376;2022-12-07T04:37:23;94495.38;;;3.87;83.78
72308;BME280;60257;42.638;23.376;2022-12-07T04:39:49;94492.34;;;3.88;83.47
72308;BME280;60257;42.638;23.376;2022-12-07T04:42:14;94494.59;;;3.86;83.41
72308;BME280;60257;42.638;23.376;2022-12-07T04:44:40;94493.16;;;3.89;83.39
72308;BME280;60257;42.638;23.376;2022-12-07T04:47:05;94494.44;;;3.92;83.43
72308;BME280;60257;42.638;23.376;2022-12-07T04:49:31;94504.63;;;3.86;83.73
72308;BME280;60257;42.638;23.376;2022-12-07T04:51:56;94504.88;;;3.76;83.87
72308;BME280;60257;42.638;23.376;2022-12-07T04:54:22;94496.78;;;3.62;84.29
72308;BME280;60257;42.638;23.376;2022-12-07T04:56:47;94498.06;;;3.65;84.13
72308;BME280;60257;42.638;23.376;2022-12-07T04:59:15;94497.47;;;3.68;84.20
72308;BME280;60257;42.638;23.376;2022-12-07T05:01:41;94504.38;;;3.74;84.09
72308;BME280;60257;42.638;23.376;2022-12-07T05:04:06;94498.88;;;3.65;84.34
72308;BME280;60257;42.638;23.376;2022-12-07T05:06:32;94501.50;;;3.70;84.38
72308;BME280;60257;42.638;23.376;2022-12-07T05:08:58;94499.25;;;3.72;84.07
72308;BME280;60257;42.638;23.376;2022-12-07T05:11:23;94493.66;;;3.69;83.99
72308;BME280;60257;42.638;23.376;2022-12-07T05:14:07;94497.78;;;3.66;84.49
72308;BME280;60257;42.638;23.376;2022-12-07T05:16:33;94495.88;;;3.67;84.68
72308;BME280;60257;42.638;23.376;2022-12-07T05:18:59;94497.28;;;3.64;84.88
72308;BME280;60257;42.638;23.376;2022-12-07T05:21:25;94473.22;;;3.49;84.86
72308;BME280;60257;42.638;23.376;2022-12-07T05:23:50;94505.59;;;3.68;84.58
72308;BME280;60257;42.638;23.376;2022-12-07T05:26:16;94495.31;;;3.78;84.18
72308;BME280;60257;42.638;23.376;2022-12-07T05:28:41;94496.16;;;3.87;84.08
72308;BME280;60257;42.638;23.376;2022-12-07T05:31:07;94503.91;;;3.94;83.89
72308;BME280;60257;42.638;23.376;2022-12-07T05:33:32;94493.78;;;3.86;84.06
72308;BME280;60257;42.638;23.376;2022-12-07T05:35:58;94497.78;;;3.88;84.36
72308;BME280;60257;42.638;23.376;2022-12-07T05:38:23;94509.63;;;3.93;83.73
72308;BME280;60257;42.638;23.376;2022-12-07T05:40:50;94502.81;;;3.81;84.48
72308;BME280;60257;42.638;23.376;2022-12-07T05:43:16;94493.44;;;3.87;84.32
72308;BME280;60257;42.638;23.376;2022-12-07T05:45:41;94491.44;;;3.93;83.99
72308;BME280;60257;42.638;23.376;2022-12-07T05:48:07;94488.88;;;3.97;84.19
72308;BME280;60257;42.638;23.376;2022-12-07T05:50:32;94486.53;;;4.04;84.08
72308;BME280;60257;42.638;23.376;2022-12-07T05:52:58;94472.88;;;3.86;84.04
72308;BME280;60257;42.638;23.376;2022-12-07T05:55:23;94499.19;;;4.08;84.20
72308;BME280;60257;42.638;23.376;2022-12-07T05:57:48;94482.41;;;4.06;83.86
72308;BME280;60257;42.638;23.376;2022-12-07T06:00:46;94478.41;;;4.04;83.96
72308;BME280;60257;42.638;23.376;2022-12-07T06:03:12;94490.53;;;4.06;84.02
72308;BME280;60257;42.638;23.376;2022-12-07T06:05:37;94493.56;;;4.05;84.33
72308;BME280;60257;42.638;23.376;2022-12-07T06:08:03;94485.72;;;4.03;84.12
72308;BME280;60257;42.638;23.376;2022-12-07T06:10:28;94485.13;;;4.06;84.38
72308;BME280;60257;42.638;23.376;2022-12-07T06:12:54;94492.41;;;3.97;84.58
72308;BME280;60257;42.638;23.376;2022-12-07T06:15:19;94485.38;;;3.96;84.69
72308;BME280;60257;42.638;23.376;2022-12-07T06:17:45;94489.94;;;4.09;84.71
72308;BME280;60257;42.638;23.376;2022-12-07T06:20:10;94494.91;;;4.16;84.32
72308;BME280;60257;42.638;23.376;2022-12-07T06:22:36;94495.41;;;4.18;84.08
72308;BME280;60257;42.638;23.376;2022-12-07T06:25:01;94497.19;;;4.22;84.18
72308;BME280;60257;42.638;23.376;2022-12-07T06:27:26;94501.38;;;4.29;83.81
72308;BME280;60257;42.638;23.376;2022-12-07T06:29:52;94498.34;;;4.30;83.73
72308;BME280;60257;42.638;23.376;2022-12-07T06:32:17;94490.50;;;4.29;83.61
72308;BME280;60257;42.638;23.376;2022-12-07T06:34:43;94508.81;;;4.45;83.19
72308;BME280;60257;42.638;23.376;2022-12-07T06:37:08;94507.19;;;4.44;83.12
72308;BME280;60257;42.638;23.376;2022-12-07T06:39:34;94506.22;;;4.40;83.37
72308;BME280;60257;42.638;23.376;2022-12-07T06:41:59;94497.63;;;4.47;83.41
72308;BME280;60257;42.638;23.376;2022-12-07T06:44:25;94500.06;;;4.57;83.21
72308;BME280;60257;42.638;23.376;2022-12-07T06:46:51;94502.03;;;4.34;83.71
72308;BME280;60257;42.638;23.376;2022-12-07T06:49:17;94518.00;;;4.36;84.12
72308;BME280;60257;42.638;23.376;2022-12-07T06:51:43;94507.50;;;4.43;83.73
72308;BME280;60257;42.638;23.376;2022-12-07T06:54:10;94514.72;;;4.47;83.69
72308;BME280;60257;42.638;23.376;2022-12-07T06:56:36;94487.84;;;4.37;83.19
72308;BME280;60257;42.638;23.376;2022-12-07T06:59:02;94508.84;;;4.54;83.27
72308;BME280;60257;42.638;23.376;2022-12-07T07:01:28;94508.75;;;4.68;83.06
72308;BME280;60257;42.638;23.376;2022-12-07T07:03:54;94499.06;;;4.44;83.20
72308;BME280;60257;42.638;23.376;2022-12-07T07:06:19;94510.50;;;4.33;84.07
72308;BME280;60257;42.638;23.376;2022-12-07T07:08:45;94506.78;;;4.29;84.13
72308;BME280;60257;42.638;23.376;2022-12-07T07:11:11;94510.66;;;4.36;84.10
72308;BME280;60257;42.638;23.376;2022-12-07T07:13:37;94484.78;;;4.30;83.47
72308;BME280;60257;42.638;23.376;2022-12-07T07:16:02;94504.41;;;4.67;83.27
72308;BME280;60257;42.638;23.376;2022-12-07T07:18:28;94502.72;;;4.79;83.16
72308;BME280;60257;42.638;23.376;2022-12-07T07:20:54;94507.09;;;4.97;82.83
72308;BME280;60257;42.638;23.376;2022-12-07T07:23:20;94506.16;;;5.02;81.79
72308;BME280;60257;42.638;23.376;2022-12-07T07:25:47;94512.56;;;5.15;81.70
72308;BME280;60257;42.638;23.376;2022-12-07T07:28:13;94504.09;;;5.08;81.45
72308;BME280;60257;42.638;23.376;2022-12-07T07:30:42;94503.94;;;5.21;81.19
72308;BME280;60257;42.638;23.376;2022-12-07T07:33:09;94513.88;;;5.17;80.88
72308;BME280;60257;42.638;23.376;2022-12-07T07:35:34;94518.84;;;5.24;80.72
72308;BME280;60257;42.638;23.376;2022-12-07T07:38:00;94519.16;;;5.31;80.52
72308;BME280;60257;42.638;23.376;2022-12-07T07:40:26;94521.38;;;5.20;80.47
72308;BME280;60257;42.638;23.376;2022-12-07T07:42:54;94521.13;;;4.91;81.50
72308;BME280;60257;42.638;23.376;2022-12-07T07:45:21;94521.75;;;4.79;82.45
72308;BME280;60257;42.638;23.376;2022-12-07T07:47:48;94518.84;;;4.76;82.91
72308;BME280;60257;42.638;23.376;2022-12-07T07:50:14;94520.09;;;4.70;83.25
72308;BME280;60257;42.638;23.376;2022-12-07T07:52:39;94515.91;;;5.03;82.66
72308;BME280;60257;42.638;23.376;2022-12-07T07:55:05;94517.88;;;5.37;81.64
72308;BME280;60257;42.638;23.376;2022-12-07T07:57:32;94505.13;;;5.55;80.73
72308;BME280;60257;42.638;23.376;2022-12-07T07:59:58;94500.63;;;5.50;79.68
72308;BME280;60257;42.638;23.376;2022-12-07T08:02:23;94517.38;;;5.18;81.41
72308;BME280;60257;42.638;23.376;2022-12-07T08:04:49;94499.03;;;5.40;80.88
72308;BME280;60257;42.638;23.376;2022-12-07T08:07:15;94469.09;;;5.23;80.78
72308;BME280;60257;42.638;23.376;2022-12-07T08:09:41;94517.91;;;5.46;80.23
72308;BME280;60257;42.638;23.376;2022-12-07T08:12:07;94515.50;;;5.53;80.12
72308;BME280;60257;42.638;23.376;2022-12-07T08:14:33;94510.41;;;5.77;79.55
72308;BME280;60257;42.638;23.376;2022-12-07T08:16:59;94508.19;;;5.88;78.56
72308;BME280;60257;42.638;23.376;2022-12-07T08:19:25;94509.47;;;5.90;78.53
72308;BME280;60257;42.638;23.376;2022-12-07T08:21:50;94507.72;;;6.03;77.88
72308;BME280;60257;42.638;23.376;2022-12-07T08:24:16;94516.66;;;5.86;78.24
72308;BME280;60257;42.638;23.376;2022-12-07T08:26:42;94512.63;;;5.84;78.19
72308;BME280;60257;42.638;23.376;2022-12-07T08:29:08;94497.44;;;6.00;77.83
72308;BME280;60257;42.638;23.376;2022-12-07T08:31:34;94503.69;;;6.09;77.61
72308;BME280;60257;42.638;23.376;2022-12-07T08:33:59;94503.97;;;5.81;77.87
72308;BME280;60257;42.638;23.376;2022-12-07T08:36:25;94505.31;;;5.93;78.01
72308;BME280;60257;42.638;23.376;2022-12-07T08:38:50;94507.22;;;6.18;76.46
72308;BME280;60257;42.638;23.376;2022-12-07T08:41:16;94494.41;;;6.18;76.28
72308;BME280;60257;42.638;23.376;2022-12-07T08:43:41;94504.81;;;6.08;76.61
72308;BME280;60257;42.638;23.376;2022-12-07T08:49:01;94504.63;;;6.13;77.09
72308;BME280;60257;42.638;23.376;2022-12-07T08:51:27;94487.47;;;6.21;76.90
72308;BME280;60257;42.638;23.376;2022-12-07T08:53:53;94503.53;;;6.05;76.83
72308;BME280;60257;42.638;23.376;2022-12-07T08:56:20;94490.53;;;6.19;76.22
72308;BME280;60257;42.638;23.376;2022-12-07T08:58:47;94496.41;;;6.47;76.55
72308;BME280;60257;42.638;23.376;2022-12-07T09:01:13;94493.47;;;6.61;76.04
72308;BME280;60257;42.638;23.376;2022-12-07T09:03:39;94487.19;;;6.69;75.75
72308;BME280;60257;42.638;23.376;2022-12-07T09:06:04;94477.56;;;6.72;75.42
72308;BME280;60257;42.638;23.376;2022-12-07T09:08:34;94483.34;;;6.70;75.66
72308;BME280;60257;42.638;23.376;2022-12-07T09:11:01;94473.72;;;6.73;75.84
72308;BME280;60257;42.638;23.376;2022-12-07T09:13:26;94470.75;;;6.86;75.24
72308;BME280;60257;42.638;23.376;2022-12-07T09:15:52;94486.28;;;6.94;75.11
72308;BME280;60257;42.638;23.376;2022-12-07T09:18:17;94477.03;;;6.87;75.13
72308;BME280;60257;42.638;23.376;2022-12-07T09:20:43;94465.91;;;6.92;74.90
72308;BME280;60257;42.638;23.376;2022-12-07T09:23:08;94468.94;;;6.99;74.46
72308;BME280;60257;42.638;23.376;2022-12-07T09:25:34;94462.50;;;7.04;74.64
72308;BME280;60257;42.638;23.376;2022-12-07T09:28:00;94451.06;;;7.10;74.34
72308;BME280;60257;42.638;23.376;2022-12-07T09:30:27;94445.91;;;7.17;73.76
72308;BME280;60257;42.638;23.376;2022-12-07T09:32:54;94464.34;;;6.82;74.21
72308;BME280;60257;42.638;23.376;2022-12-07T09:35:20;94460.00;;;6.90;74.66
72308;BME280;60257;42.638;23.376;2022-12-07T09:37:45;94452.56;;;6.99;74.52
72308;BME280;60257;42.638;23.376;2022-12-07T09:40:11;94449.41;;;7.18;74.17
72308;BME280;60257;42.638;23.376;2022-12-07T09:42:43;94443.38;;;7.33;73.13
72308;BME280;60257;42.638;23.376;2022-12-07T09:45:15;94437.66;;;7.47;72.92
72308;BME280;60257;42.638;23.376;2022-12-07T09:47:41;94423.81;;;7.31;73.40
72308;BME280;60257;42.638;23.376;2022-12-07T09:50:16;94431.34;;;7.55;72.81
72308;BME280;60257;42.638;23.376;2022-12-07T09:52:44;94429.00;;;7.65;72.52
72308;BME280;60257;42.638;23.376;2022-12-07T09:55:13;94433.72;;;7.77;72.27
72308;BME280;60257;42.638;23.376;2022-12-07T09:57:39;94430.75;;;7.82;71.97
72308;BME280;60257;42.638;23.376;2022-12-07T10:00:14;94429.69;;;7.95;71.78
72308;BME280;60257;42.638;23.376;2022-12-07T10:02:43;94429.28;;;7.72;71.22
72308;BME280;60257;42.638;23.376;2022-12-07T10:05:18;94423.00;;;7.72;71.35
72308;BME280;60257;42.638;23.376;2022-12-07T10:07:46;94419.66;;;7.87;70.83
72308;BME280;60257;42.638;23.376;2022-12-07T10:10:26;94412.09;;;7.51;71.91
72308;BME280;60257;42.638;23.376;2022-12-07T10:23:29;94406.00;;;7.87;70.64
72308;BME280;60257;42.638;23.376;2022-12-07T10:25:55;94401.38;;;8.00;70.56
72308;BME280;60257;42.638;23.376;2022-12-07T10:28:21;94397.50;;;8.34;69.41
72308;BME280;60257;42.638;23.376;2022-12-07T10:35:57;94376.13;;;8.97;68.85
72308;BME280;60257;42.638;23.376;2022-12-07T10:38:25;94373.28;;;8.57;67.71
72308;BME280;60257;42.638;23.376;2022-12-07T10:41:07;94379.44;;;8.08;68.90
72308;BME280;60257;42.638;23.376;2022-12-07T10:43:33;94377.13;;;7.98;69.88
72308;BME280;60257;42.638;23.376;2022-12-07T10:52:20;94371.88;;;7.81;70.45
72308;BME280;60257;42.638;23.376;2022-12-07T10:55:11;94364.56;;;7.73;70.78
72308;BME280;60257;42.638;23.376;2022-12-07T11:00:39;94343.44;;;8.39;69.32
72308;BME280;60257;42.638;23.376;2022-12-07T11:05:50;94332.16;;;8.77;67.79
72308;BME280;60257;42.638;23.376;2022-12-07T11:08:39;94326.44;;;8.95;67.23
72308;BME280;60257;42.638;23.376;2022-12-07T11:11:14;94313.13;;;8.81;67.28
72308;BME280;60257;42.638;23.376;2022-12-07T11:16:57;94339.91;;;8.63;68.11
72308;BME280;60257;42.638;23.376;2022-12-07T11:27:47;94338.09;;;8.55;67.75
72308;BME280;60257;42.638;23.376;2022-12-07T11:30:22;94306.09;;;8.56;68.11
72308;BME280;60257;42.638;23.376;2022-12-07T11:35:59;94308.91;;;8.23;68.94
72308;BME280;60257;42.638;23.376;2022-12-07T11:38:37;94302.88;;;8.29;68.82
72308;BME280;60257;42.638;23.376;2022-12-07T11:41:06;94303.09;;;8.24;68.83
72308;BME280;60257;42.638;23.376;2022-12-07T12:01:42;94290.63;;;7.66;71.07
72308;BME280;60257;42.638;23.376;2022-12-07T12:06:37;94281.97;;;7.64;71.66
72308;BME280;60257;42.638;23.376;2022-12-07T12:09:11;94275.13;;;7.58;71.32
72308;BME280;60257;42.638;23.376;2022-12-07T12:14:48;94266.97;;;7.70;71.54
72308;BME280;60257;42.638;23.376;2022-12-07T12:22:46;94255.63;;;7.80;70.69
72308;BME280;60257;42.638;23.376;2022-12-07T12:28:05;94254.63;;;7.97;70.52
72308;BME280;60257;42.638;23.376;2022-12-07T12:30:38;94248.94;;;8.02;69.71
72308;BME280;60257;42.638;23.376;2022-12-07T12:33:30;94244.94;;;8.11;70.01
72308;BME280;60257;42.638;23.376;2022-12-07T12:51:46;94221.13;;;8.61;67.73
72308;BME280;60257;42.638;23.376;2022-12-07T12:54:19;94231.69;;;8.74;67.72
72308;BME280;60257;42.638;23.376;2022-12-07T12:59:35;94228.97;;;9.02;66.83
72308;BME280;60257;42.638;23.376;2022-12-07T13:02:27;94231.06;;;8.93;66.33
72308;BME280;60257;42.638;23.376;2022-12-07T13:04:58;94233.66;;;9.02;66.48
72308;BME280;60257;42.638;23.376;2022-12-07T13:23:36;94239.44;;;8.60;67.20
72308;BME280;60257;42.638;23.376;2022-12-07T13:31:38;94236.84;;;8.64;67.54
72308;BME280;60257;42.638;23.376;2022-12-07T13:37:12;94232.41;;;8.59;67.72
72308;BME280;60257;42.638;23.376;2022-12-07T13:39:50;94234.66;;;8.69;67.72
72308;BME280;60257;42.638;23.376;2022-12-07T13:42:25;94224.31;;;8.75;67.49
72308;BME280;60257;42.638;23.376;2022-12-07T13:44:51;94230.31;;;8.80;67.54
72308;BME280;60257;42.638;23.376;2022-12-07T13:47:18;94216.63;;;8.80;67.66
72308;BME280;60257;42.638;23.376;2022-12-07T13:49:55;94220.25;;;8.84;67.91
72308;BME280;60257;42.638;23.376;2022-12-07T13:52:22;94214.44;;;8.86;67.62
72308;BME280;60257;42.638;23.376;2022-12-07T13:55:11;94215.94;;;8.83;67.83
72308;BME280;60257;42.638;23.376;2022-12-07T13:57:39;94202.97;;;8.80;67.72
72308;BME280;60257;42.638;23.376;2022-12-07T14:00:13;94206.72;;;8.88;67.39
72308;BME280;60257;42.638;23.376;2022-12-07T14:02:56;94201.31;;;8.92;67.49
72308;BME280;60257;42.638;23.376;2022-12-07T14:05:30;94205.09;;;8.87;67.46
72308;BME280;60257;42.638;23.376;2022-12-07T14:13:03;94224.63;;;8.73;68.45
72308;BME280;60257;42.638;23.376;2022-12-07T14:15:31;94220.78;;;8.74;67.95
72308;BME280;60257;42.638;23.376;2022-12-07T14:17:59;94222.69;;;8.74;68.00
72308;BME280;60257;42.638;23.376;2022-12-07T14:23:02;94232.34;;;8.83;67.80
72308;BME280;60257;42.638;23.376;2022-12-07T14:25:45;94225.44;;;8.74;68.24
72308;BME280;60257;42.638;23.376;2022-12-07T14:28:34;94229.91;;;8.66;68.24
72308;BME280;60257;42.638;23.376;2022-12-07T14:31:01;94210.78;;;8.54;68.30
72308;BME280;60257;42.638;23.376;2022-12-07T14:33:27;94230.25;;;8.53;68.66
72308;BME280;60257;42.638;23.376;2022-12-07T14:35:53;94231.63;;;8.46;68.82
72308;BME280;60257;42.638;23.376;2022-12-07T14:38:24;94227.78;;;8.35;69.14
72308;BME280;60257;42.638;23.376;2022-12-07T14:40:51;94227.06;;;8.26;69.38
72308;BME280;60257;42.638;23.376;2022-12-07T14:43:17;94224.47;;;8.18;70.59
72308;BME280;60257;42.638;23.376;2022-12-07T14:45:44;94221.16;;;8.12;70.33
72308;BME280;60257;42.638;23.376;2022-12-07T14:48:14;94229.13;;;8.05;70.83
72308;BME280;60257;42.638;23.376;2022-12-07T14:50:50;94230.84;;;7.97;70.82
72308;BME280;60257;42.638;23.376;2022-12-07T14:53:18;94224.78;;;7.92;71.10
72308;BME280;60257;42.638;23.376;2022-12-07T14:55:48;94224.31;;;7.90;70.96
72308;BME280;60257;42.638;23.376;2022-12-07T14:58:15;94228.56;;;7.87;70.96
72308;BME280;60257;42.638;23.376;2022-12-07T15:00:41;94236.84;;;7.79;71.18
72308;BME280;60257;42.638;23.376;2022-12-07T15:03:07;94235.91;;;7.74;71.44
72308;BME280;60257;42.638;23.376;2022-12-07T15:05:33;94238.78;;;7.66;71.72
72308;BME280;60257;42.638;23.376;2022-12-07T15:07:58;94252.16;;;7.59;72.11
72308;BME280;60257;42.638;23.376;2022-12-07T15:10:27;94245.00;;;7.54;72.76
72308;BME280;60257;42.638;23.376;2022-12-07T15:12:55;94224.94;;;7.38;72.62
72308;BME280;60257;42.638;23.376;2022-12-07T15:15:41;94244.75;;;7.47;72.26
72308;BME280;60257;42.638;23.376;2022-12-07T15:18:07;94249.97;;;7.40;72.74
72308;BME280;60257;42.638;23.376;2022-12-07T15:20:32;94255.97;;;7.33;73.01
72308;BME280;60257;42.638;23.376;2022-12-07T15:22:58;94251.06;;;7.27;73.25
72308;BME280;60257;42.638;23.376;2022-12-07T15:25:23;94252.84;;;7.23;73.98
72308;BME280;60257;42.638;23.376;2022-12-07T15:27:49;94254.66;;;7.19;74.21
72308;BME280;60257;42.638;23.376;2022-12-07T15:30:15;94253.88;;;7.18;74.09
72308;BME280;60257;42.638;23.376;2022-12-07T15:32:40;94255.34;;;7.16;73.73
72308;BME280;60257;42.638;23.376;2022-12-07T15:35:06;94261.00;;;7.11;73.76
72308;BME280;60257;42.638;23.376;2022-12-07T15:37:32;94263.91;;;7.06;74.04
72308;BME280;60257;42.638;23.376;2022-12-07T15:39:57;94263.22;;;6.97;74.20